Time;durP1;ratioP1;P1;durP2;ratioP2;P2;SDS_P1;SDS_P2;PMS_P1;PMS_P2;Temp;Humidity;BMP_temperature;BMP_pressure;BME280_temperature;BME280_humidity;BME280_pressure;Samples;Min_cycle;Max_cycle;Signal;HPM_P1;HPM_P2
2022/03/02 00:01:38;;;;;;;11.20;7.43;;;;;;;;;;4996759;28;20795;-77
2022/03/02 00:04:04;;;;;;;10.27;7.43;;;;;;;;;;4996950;28;20407;-77
2022/03/02 00:06:30;;;;;;;11.07;7.50;;;;;;;;;;5011605;28;20421;-76
2022/03/02 00:08:56;;;;;;;12.40;7.63;;;;;;;;;;4996179;28;20407;-76
2022/03/02 00:11:23;;;;;;;10.40;8.33;;;;;;;;;;5010663;28;20846;-76
2022/03/02 00:13:49;;;;;;;11.87;8.27;;;;;;;;;;4995417;28;20815;-76
2022/03/02 00:16:16;;;;;;;11.80;7.87;;;;;;;;;;4996218;28;20908;-77
2022/03/02 00:18:43;;;;;;;13.93;8.60;;;;;;;;;;5011413;28;20507;-76
2022/03/02 00:21:09;;;;;;;10.70;8.00;;;;;;;;;;5010631;28;20425;-76
2022/03/02 00:23:35;;;;;;;13.57;8.57;;;;;;;;;;5010424;28;20400;-77
2022/03/02 00:26:01;;;;;;;12.20;8.00;;;;;;;;;;4995365;28;20908;-77
2022/03/02 00:28:28;;;;;;;13.03;9.30;;;;;;;;;;4995413;28;20419;-77
2022/03/02 00:30:54;;;;;;;15.23;9.20;;;;;;;;;;5010434;28;20413;-76
2022/03/02 00:33:20;;;;;;;10.43;7.80;;;;;;;;;;4995003;28;20511;-77
2022/03/02 00:35:46;;;;;;;15.20;9.47;;;;;;;;;;5010604;28;20506;-76
2022/03/02 00:38:13;;;;;;;15.70;9.53;;;;;;;;;;4995327;28;20432;-76
2022/03/02 00:40:39;;;;;;;17.63;8.90;;;;;;;;;;5011037;28;20411;-78
2022/03/02 00:43:06;;;;;;;16.10;8.63;;;;;;;;;;4998828;28;20935;-76
2022/03/02 00:45:32;;;;;;;14.27;8.63;;;;;;;;;;5010998;28;20405;-77
2022/03/02 00:47:59;;;;;;;12.57;9.40;;;;;;;;;;4995680;28;20943;-77
2022/03/02 00:50:26;;;;;;;13.23;8.90;;;;;;;;;;4996074;28;20397;-78
2022/03/02 00:52:52;;;;;;;12.70;9.20;;;;;;;;;;4996261;28;20447;-77
2022/03/02 00:55:18;;;;;;;14.10;9.63;;;;;;;;;;5011324;28;20416;-77
2022/03/02 00:57:44;;;;;;;13.00;8.40;;;;;;;;;;4996336;28;20591;-78
2022/03/02 01:00:11;;;;;;;11.30;8.90;;;;;;;;;;4998983;28;20443;-77
2022/03/02 01:02:38;;;;;;;12.73;8.70;;;;;;;;;;4996218;28;20965;-77
2022/03/02 01:05:07;;;;;;;17.03;9.20;;;;;;;;;;4995928;28;20789;-77
2022/03/02 01:07:34;;;;;;;13.60;9.33;;;;;;;;;;5010831;28;20808;-78
2022/03/02 01:10:00;;;;;;;19.20;9.37;;;;;;;;;;4995470;28;20513;-77
2022/03/02 01:12:26;;;;;;;11.17;8.70;;;;;;;;;;4995708;28;20435;-77
2022/03/02 01:14:52;;;;;;;11.57;8.70;;;;;;;;;;4995924;28;20440;-77
2022/03/02 01:17:19;;;;;;;14.27;9.23;;;;;;;;;;4995449;28;20816;-77
2022/03/02 01:19:45;;;;;;;14.87;9.30;;;;;;;;;;5009990;28;20423;-78
2022/03/02 01:22:11;;;;;;;14.47;9.23;;;;;;;;;;4995372;28;20796;-77
2022/03/02 01:24:37;;;;;;;14.90;8.47;;;;;;;;;;4995363;28;20479;-77
2022/03/02 01:27:03;;;;;;;11.37;8.40;;;;;;;;;;5010253;28;20515;-77
2022/03/02 01:29:30;;;;;;;13.40;8.43;;;;;;;;;;4995224;28;20424;-78
2022/03/02 01:31:57;;;;;;;14.10;8.90;;;;;;;;;;4995574;28;20439;-77
2022/03/02 01:34:24;;;;;;;12.20;8.77;;;;;;;;;;5010397;28;20432;-77
2022/03/02 01:36:50;;;;;;;17.27;10.40;;;;;;;;;;4995020;28;20535;-80
2022/03/02 01:39:16;;;;;;;18.33;8.53;;;;;;;;;;4993340;28;20416;-78
2022/03/02 01:41:43;;;;;;;11.90;8.40;;;;;;;;;;4995181;28;20416;-78
2022/03/02 01:44:09;;;;;;;16.20;9.70;;;;;;;;;;5010635;28;20409;-78
2022/03/02 01:46:35;;;;;;;12.23;8.47;;;;;;;;;;4995670;28;20420;-77
2022/03/02 01:49:01;;;;;;;11.00;7.30;;;;;;;;;;4995440;28;20559;-77
2022/03/02 01:51:27;;;;;;;9.67;7.73;;;;;;;;;;4995206;28;20463;-77
2022/03/02 01:53:53;;;;;;;12.07;7.37;;;;;;;;;;4995076;28;20451;-77
2022/03/02 01:56:20;;;;;;;11.30;7.80;;;;;;;;;;4995384;28;20448;-77
2022/03/02 01:58:46;;;;;;;22.40;8.50;;;;;;;;;;4994971;28;20499;-77
2022/03/02 02:01:13;;;;;;;14.80;8.53;;;;;;;;;;4994762;28;20494;-77
2022/03/02 02:03:39;;;;;;;12.83;8.00;;;;;;;;;;4995221;28;20412;-77
2022/03/02 02:06:05;;;;;;;10.57;7.60;;;;;;;;;;4995454;28;20455;-77
2022/03/02 02:08:32;;;;;;;13.03;7.93;;;;;;;;;;5010165;28;20880;-77
2022/03/02 02:10:59;;;;;;;13.00;7.03;;;;;;;;;;4994504;28;20425;-77
2022/03/02 02:13:26;;;;;;;13.23;8.40;;;;;;;;;;4994872;28;20414;-78
2022/03/02 02:15:53;;;;;;;14.13;9.13;;;;;;;;;;4994401;28;20463;-78
2022/03/02 02:18:19;;;;;;;12.63;9.13;;;;;;;;;;4993859;28;20416;-77
2022/03/02 02:20:45;;;;;;;12.47;7.90;;;;;;;;;;4994046;28;20777;-77
2022/03/02 02:23:12;;;;;;;11.23;7.90;;;;;;;;;;4993975;28;20423;-77
2022/03/02 02:25:38;;;;;;;12.90;8.33;;;;;;;;;;4993541;28;20404;-78
2022/03/02 02:28:04;;;;;;;10.70;7.70;;;;;;;;;;4993739;28;20923;-77
2022/03/02 02:30:30;;;;;;;12.67;8.13;;;;;;;;;;4993837;28;20408;-77
2022/03/02 02:32:57;;;;;;;9.57;7.27;;;;;;;;;;4993549;28;20428;-77
2022/03/02 02:35:25;;;;;;;13.10;9.53;;;;;;;;;;5008497;28;20416;-77
2022/03/02 02:37:51;;;;;;;11.13;8.67;;;;;;;;;;4993800;28;20414;-78
2022/03/02 02:40:18;;;;;;;10.63;8.90;;;;;;;;;;4994030;28;20399;-77
2022/03/02 02:42:45;;;;;;;12.87;8.63;;;;;;;;;;4993306;28;20801;-78
2022/03/02 02:45:14;;;;;;;19.17;9.67;;;;;;;;;;4995467;28;20400;-78
2022/03/02 02:47:40;;;;;;;24.13;10.97;;;;;;;;;;4997206;28;20408;-77
2022/03/02 02:50:16;;;;;;;16.60;9.03;;;;;;;;;;4997087;28;20946;-77
2022/03/02 02:52:42;;;;;;;17.10;10.23;;;;;;;;;;5013883;28;20440;-77
2022/03/02 02:55:09;;;;;;;17.10;9.30;;;;;;;;;;5000373;28;20436;-77
2022/03/02 02:57:35;;;;;;;13.80;9.40;;;;;;;;;;5031245;28;20442;-77
2022/03/02 03:00:01;;;;;;;17.37;9.43;;;;;;;;;;5016797;28;20407;-77
2022/03/02 03:02:27;;;;;;;11.60;8.43;;;;;;;;;;5031826;28;20439;-77
2022/03/02 03:04:53;;;;;;;15.40;10.70;;;;;;;;;;5016827;28;20399;-77
2022/03/02 03:07:19;;;;;;;16.73;9.83;;;;;;;;;;5016939;28;20419;-77
2022/03/02 03:09:45;;;;;;;14.33;9.20;;;;;;;;;;5016747;28;20412;-77
2022/03/02 03:12:11;;;;;;;16.57;9.00;;;;;;;;;;5016301;28;20419;-77
2022/03/02 03:14:38;;;;;;;14.80;8.53;;;;;;;;;;5016322;28;20413;-77
2022/03/02 03:17:04;;;;;;;13.23;9.30;;;;;;;;;;5031045;28;21034;-78
2022/03/02 03:19:30;;;;;;;14.83;8.73;;;;;;;;;;5016335;28;20792;-77
2022/03/02 03:22:02;;;;;;;12.20;8.80;;;;;;;;;;5016418;28;20462;-77
2022/03/02 03:24:28;;;;;;;15.70;10.30;;;;;;;;;;5031356;28;20615;-77
2022/03/02 03:26:54;;;;;;;11.50;9.37;;;;;;;;;;5014696;28;20423;-77
2022/03/02 03:29:20;;;;;;;18.17;9.87;;;;;;;;;;5015742;28;20407;-78
2022/03/02 03:31:46;;;;;;;12.97;8.70;;;;;;;;;;5031104;28;20448;-78
2022/03/02 03:34:12;;;;;;;13.63;10.10;;;;;;;;;;5015854;28;20411;-77
2022/03/02 03:36:38;;;;;;;20.30;9.47;;;;;;;;;;5016089;28;20537;-77
2022/03/02 03:39:05;;;;;;;17.47;9.67;;;;;;;;;;5015748;28;20396;-77
2022/03/02 03:41:31;;;;;;;20.53;9.83;;;;;;;;;;5030735;28;20473;-77
2022/03/02 03:43:57;;;;;;;11.77;8.53;;;;;;;;;;5030996;28;20431;-77
2022/03/02 03:46:23;;;;;;;13.60;9.80;;;;;;;;;;5018595;28;20415;-77
2022/03/02 03:48:50;;;;;;;13.90;8.53;;;;;;;;;;5015809;28;20454;-77
2022/03/02 03:51:16;;;;;;;19.63;9.93;;;;;;;;;;5030674;28;20454;-77
2022/03/02 03:53:42;;;;;;;15.10;9.50;;;;;;;;;;5015264;28;20410;-77
2022/03/02 03:56:08;;;;;;;14.67;8.07;;;;;;;;;;5014815;28;20447;-77
2022/03/02 03:58:34;;;;;;;13.57;8.13;;;;;;;;;;5030588;28;20415;-77
2022/03/02 04:01:00;;;;;;;15.83;8.63;;;;;;;;;;5015568;28;20442;-77
2022/03/02 04:03:26;;;;;;;12.57;8.10;;;;;;;;;;5030249;28;20757;-77
2022/03/02 04:05:52;;;;;;;17.20;8.33;;;;;;;;;;5015730;28;20407;-77
2022/03/02 04:08:18;;;;;;;13.40;8.63;;;;;;;;;;5015294;28;20780;-77
2022/03/02 04:10:45;;;;;;;13.77;8.37;;;;;;;;;;5015287;28;20880;-77
2022/03/02 04:13:11;;;;;;;9.67;6.87;;;;;;;;;;5030217;28;20419;-77
2022/03/02 04:15:38;;;;;;;14.43;8.40;;;;;;;;;;5015095;28;20479;-78
2022/03/02 04:18:06;;;;;;;15.63;9.00;;;;;;;;;;5030412;28;20421;-78
2022/03/02 04:20:32;;;;;;;11.67;7.00;;;;;;;;;;5030232;28;20494;-77
2022/03/02 04:22:58;;;;;;;12.07;7.73;;;;;;;;;;5029990;28;20511;-77
2022/03/02 04:25:25;;;;;;;11.20;7.60;;;;;;;;;;5012141;28;20428;-77
2022/03/02 04:27:51;;;;;;;15.53;8.67;;;;;;;;;;5030154;28;20514;-77
2022/03/02 04:30:17;;;;;;;9.70;6.80;;;;;;;;;;5013764;28;20414;-77
2022/03/02 04:32:43;;;;;;;13.40;7.97;;;;;;;;;;5014520;28;20485;-77
2022/03/02 04:35:10;;;;;;;17.37;9.37;;;;;;;;;;5029911;28;20505;-77
2022/03/02 04:37:37;;;;;;;11.83;7.80;;;;;;;;;;5030027;28;20841;-77
2022/03/02 04:40:04;;;;;;;13.17;7.23;;;;;;;;;;5014610;28;20414;-77
2022/03/02 04:42:30;;;;;;;14.83;8.33;;;;;;;;;;5030121;28;20431;-77
2022/03/02 04:44:56;;;;;;;15.73;8.30;;;;;;;;;;5014971;28;20407;-77
2022/03/02 04:47:22;;;;;;;12.23;8.23;;;;;;;;;;5014708;28;20896;-79
2022/03/02 04:49:48;;;;;;;11.27;7.70;;;;;;;;;;5014423;28;20524;-77
2022/03/02 04:52:14;;;;;;;12.33;8.70;;;;;;;;;;5042764;23;20488;-74
2022/03/02 04:57:25;;;;;;;11.80;7.87;;;;;;;;;;4994427;28;20825;-75
2022/03/02 04:59:51;;;;;;;12.50;8.23;;;;;;;;;;4994532;28;20424;-75
2022/03/02 05:02:18;;;;;;;13.13;8.17;;;;;;;;;;4994533;28;20421;-75
2022/03/02 05:04:44;;;;;;;16.43;7.13;;;;;;;;;;4994681;28;20839;-75
2022/03/02 05:07:10;;;;;;;9.53;7.10;;;;;;;;;;4992650;28;20838;-75
2022/03/02 05:09:36;;;;;;;13.80;8.50;;;;;;;;;;4994489;28;20471;-75
2022/03/02 05:12:02;;;;;;;12.60;6.67;;;;;;;;;;4994772;28;20439;-75
2022/03/02 05:14:29;;;;;;;9.00;7.50;;;;;;;;;;4976599;28;20852;-75
2022/03/02 05:16:55;;;;;;;11.90;7.30;;;;;;;;;;4975363;28;20448;-74
2022/03/02 05:19:21;;;;;;;10.27;6.77;;;;;;;;;;4974852;28;20409;-76
2022/03/02 05:21:47;;;;;;;8.60;7.00;;;;;;;;;;4974778;28;20425;-76
2022/03/02 05:24:14;;;;;;;11.23;7.50;;;;;;;;;;4974671;28;20451;-76
2022/03/02 05:26:40;;;;;;;10.20;7.00;;;;;;;;;;4973576;28;20793;-75
2022/03/02 05:29:07;;;;;;;11.40;6.60;;;;;;;;;;4974838;28;20890;-76
2022/03/02 05:31:33;;;;;;;16.40;6.57;;;;;;;;;;4974673;28;20432;-76
2022/03/02 05:33:59;;;;;;;11.70;7.20;;;;;;;;;;4974708;28;20492;-75
2022/03/02 05:36:26;;;;;;;11.30;7.07;;;;;;;;;;4974738;28;20914;-75
2022/03/02 05:38:52;;;;;;;14.10;6.70;;;;;;;;;;4974602;28;20424;-75
2022/03/02 05:41:19;;;;;;;16.03;7.60;;;;;;;;;;4974559;28;20393;-75
2022/03/02 05:43:45;;;;;;;13.73;8.50;;;;;;;;;;4973281;28;20409;-75
2022/03/02 05:46:11;;;;;;;10.60;6.07;;;;;;;;;;4974596;28;20780;-75
2022/03/02 05:48:37;;;;;;;11.13;7.07;;;;;;;;;;4974654;28;20777;-75
2022/03/02 05:51:03;;;;;;;10.20;6.63;;;;;;;;;;4974746;28;20465;-76
2022/03/02 05:53:29;;;;;;;9.73;5.83;;;;;;;;;;4974217;28;20436;-76
2022/03/02 05:55:55;;;;;;;11.67;6.23;;;;;;;;;;4974500;28;20487;-75
2022/03/02 05:58:22;;;;;;;7.50;5.90;;;;;;;;;;4974288;28;20448;-75
2022/03/02 06:00:48;;;;;;;6.87;5.00;;;;;;;;;;4974268;28;20565;-75
2022/03/02 06:03:14;;;;;;;10.53;6.20;;;;;;;;;;4974410;28;20867;-75
2022/03/02 06:05:40;;;;;;;9.13;6.90;;;;;;;;;;4974218;28;20898;-76
2022/03/02 06:08:09;;;;;;;10.30;6.40;;;;;;;;;;4974146;28;20409;-76
2022/03/02 06:10:35;;;;;;;10.57;6.77;;;;;;;;;;4974246;28;20448;-75
2022/03/02 06:13:02;;;;;;;13.60;6.93;;;;;;;;;;4974073;28;20425;-76
2022/03/02 06:15:28;;;;;;;9.40;6.50;;;;;;;;;;4974444;28;20409;-76
2022/03/02 06:17:54;;;;;;;8.70;5.90;;;;;;;;;;4974035;28;20500;-76
2022/03/02 06:20:20;;;;;;;13.50;6.87;;;;;;;;;;4976891;28;20483;-76
2022/03/02 06:22:47;;;;;;;8.60;6.13;;;;;;;;;;4976606;28;20433;-76
2022/03/02 06:25:13;;;;;;;9.10;5.83;;;;;;;;;;4978307;28;20484;-76
2022/03/02 06:27:39;;;;;;;11.30;6.40;;;;;;;;;;4977782;28;20492;-76
2022/03/02 06:30:06;;;;;;;11.20;6.53;;;;;;;;;;4977804;28;20412;-76
2022/03/02 06:32:34;;;;;;;9.83;6.87;;;;;;;;;;4978256;28;20516;-75
2022/03/02 06:35:00;;;;;;;8.37;6.43;;;;;;;;;;4976616;28;20413;-76
2022/03/02 06:37:26;;;;;;;10.73;7.13;;;;;;;;;;4977857;28;20519;-75
2022/03/02 06:39:52;;;;;;;8.97;6.17;;;;;;;;;;4977870;28;20995;-76
2022/03/02 06:42:22;;;;;;;10.63;6.70;;;;;;;;;;4977473;28;20413;-75
2022/03/02 06:44:56;;;;;;;11.10;6.10;;;;;;;;;;4977588;28;20393;-75
2022/03/02 06:47:29;;;;;;;9.63;6.63;;;;;;;;;;4977525;28;20894;-76
2022/03/02 06:49:55;;;;;;;10.20;6.60;;;;;;;;;;4977378;28;20404;-75
2022/03/02 06:52:22;;;;;;;7.10;6.00;;;;;;;;;;4977635;28;20976;-75
2022/03/02 06:54:48;;;;;;;15.70;6.67;;;;;;;;;;4977396;28;20432;-75
2022/03/02 06:57:16;;;;;;;10.57;6.70;;;;;;;;;;4977263;28;20448;-75
2022/03/02 06:59:43;;;;;;;10.20;6.73;;;;;;;;;;4977640;28;20540;-77
2022/03/02 07:02:11;;;;;;;9.93;6.87;;;;;;;;;;4976504;28;20972;-76
2022/03/02 07:04:41;;;;;;;9.00;5.53;;;;;;;;;;4977491;28;20408;-75
2022/03/02 07:07:08;;;;;;;10.60;6.77;;;;;;;;;;4978026;28;20409;-75
2022/03/02 07:09:34;;;;;;;8.60;5.80;;;;;;;;;;4978646;28;20416;-75
2022/03/02 07:12:01;;;;;;;14.50;8.00;;;;;;;;;;4986777;28;20849;-75
2022/03/02 07:14:31;;;;;;;11.30;6.33;;;;;;;;;;4978443;28;20765;-76
2022/03/02 07:17:01;;;;;;;27.83;12.50;;;;;;;;;;4977753;28;20472;-75
2022/03/02 07:19:27;;;;;;;15.30;7.77;;;;;;;;;;4977330;28;20935;-76
2022/03/02 07:21:55;;;;;;;15.67;7.93;;;;;;;;;;4977941;28;20413;-75
2022/03/02 07:24:25;;;;;;;14.60;7.23;;;;;;;;;;4989589;28;20747;-75
2022/03/02 07:26:52;;;;;;;9.97;6.33;;;;;;;;;;4988678;28;20833;-73
2022/03/02 07:29:19;;;;;;;12.80;6.40;;;;;;;;;;4992948;28;20423;-76
2022/03/02 07:31:45;;;;;;;12.80;7.13;;;;;;;;;;4994182;28;20855;-76
2022/03/02 07:34:12;;;;;;;13.33;8.07;;;;;;;;;;4995745;28;20408;-77
2022/03/02 07:36:40;;;;;;;14.93;7.47;;;;;;;;;;4994538;28;20459;-77
2022/03/02 07:39:06;;;;;;;19.33;8.60;;;;;;;;;;4994123;28;20554;-77
2022/03/02 07:41:32;;;;;;;13.83;8.00;;;;;;;;;;4995077;28;20781;-76
2022/03/02 07:43:59;;;;;;;12.13;6.60;;;;;;;;;;4988867;28;20767;-77
2022/03/02 07:46:28;;;;;;;17.77;7.77;;;;;;;;;;4991379;28;20445;-76
2022/03/02 07:48:54;;;;;;;11.97;6.73;;;;;;;;;;4996409;28;20415;-76
2022/03/02 07:51:22;;;;;;;11.03;7.70;;;;;;;;;;4994759;28;20416;-75
2022/03/02 07:53:49;;;;;;;9.33;7.00;;;;;;;;;;4995409;28;20808;-76
2022/03/02 07:56:16;;;;;;;13.10;8.00;;;;;;;;;;4995606;28;20447;-76
2022/03/02 07:58:42;;;;;;;12.37;8.20;;;;;;;;;;4994952;28;20451;-76
2022/03/02 08:01:09;;;;;;;13.50;8.17;;;;;;;;;;4994879;28;20408;-75
2022/03/02 08:03:38;;;;;;;11.90;8.37;;;;;;;;;;4994350;28;20780;-75
2022/03/02 08:06:05;;;;;;;24.80;8.60;;;;;;;;;;4994180;28;20490;-76
2022/03/02 08:08:31;;;;;;;10.90;7.70;;;;;;;;;;4994762;28;20442;-76
2022/03/02 08:10:57;;;;;;;14.17;7.80;;;;;;;;;;4991945;28;20502;-76
2022/03/02 08:13:23;;;;;;;13.80;8.73;;;;;;;;;;4998339;28;20530;-75
2022/03/02 08:15:50;;;;;;;9.57;7.33;;;;;;;;;;4992641;28;20416;-76
2022/03/02 08:18:17;;;;;;;14.20;7.67;;;;;;;;;;4993327;28;20438;-76
2022/03/02 08:20:50;;;;;;;12.00;6.80;;;;;;;;;;4992528;28;20412;-76
2022/03/02 08:23:19;;;;;;;11.90;7.00;;;;;;;;;;4993369;28;20436;-76
2022/03/02 08:25:46;;;;;;;11.30;6.70;;;;;;;;;;4994160;28;20503;-76
2022/03/02 08:28:15;;;;;;;9.40;6.73;;;;;;;;;;4990891;28;20483;-76
2022/03/02 08:30:41;;;;;;;10.93;7.50;;;;;;;;;;4989488;28;20424;-76
2022/03/02 08:33:09;;;;;;;16.03;7.50;;;;;;;;;;4994165;28;20437;-76
2022/03/02 08:35:37;;;;;;;14.80;8.77;;;;;;;;;;4985441;28;20487;-76
2022/03/02 08:38:03;;;;;;;14.20;6.40;;;;;;;;;;4991542;28;20459;-76
2022/03/02 08:40:30;;;;;;;13.00;8.10;;;;;;;;;;4989778;28;20512;-76
2022/03/02 08:43:02;;;;;;;11.07;7.83;;;;;;;;;;4990752;28;20444;-78
2022/03/02 08:45:29;;;;;;;14.50;7.53;;;;;;;;;;4994445;28;20524;-77
2022/03/02 08:48:00;;;;;;;13.87;8.90;;;;;;;;;;4990721;28;20454;-77
2022/03/02 08:50:26;;;;;;;17.50;8.53;;;;;;;;;;4990989;28;20409;-76
2022/03/02 08:52:52;;;;;;;9.90;6.90;;;;;;;;;;4990985;28;20554;-77
2022/03/02 08:55:19;;;;;;;8.60;6.50;;;;;;;;;;4991569;28;20419;-76
2022/03/02 08:57:45;;;;;;;17.13;6.97;;;;;;;;;;4991808;28;20459;-77
2022/03/02 09:00:13;;;;;;;10.10;6.70;;;;;;;;;;4994120;28;20421;-76
2022/03/02 09:02:40;;;;;;;13.43;6.53;;;;;;;;;;4992279;28;20507;-76
2022/03/02 09:05:07;;;;;;;10.20;7.00;;;;;;;;;;4991919;28;20173;-77
2022/03/02 09:07:33;;;;;;;10.10;6.87;;;;;;;;;;4992309;28;20435;-77
2022/03/02 09:10:00;;;;;;;13.27;7.47;;;;;;;;;;4990136;28;21045;-77
2022/03/02 09:12:26;;;;;;;8.87;6.60;;;;;;;;;;4992841;28;20436;-77
2022/03/02 09:14:52;;;;;;;12.23;7.20;;;;;;;;;;4988648;28;20420;-75
2022/03/02 09:17:21;;;;;;;10.83;6.50;;;;;;;;;;4994021;28;20944;-77
2022/03/02 09:19:47;;;;;;;10.17;6.50;;;;;;;;;;4989086;28;20486;-76
2022/03/02 09:22:13;;;;;;;9.50;6.20;;;;;;;;;;4992027;28;20443;-77
2022/03/02 09:24:39;;;;;;;8.90;5.60;;;;;;;;;;4988532;28;20930;-76
2022/03/02 09:27:08;;;;;;;7.17;5.43;;;;;;;;;;4989528;28;20427;-75
2022/03/02 09:29:38;;;;;;;8.27;5.30;;;;;;;;;;4974792;28;20519;-76
2022/03/02 09:32:04;;;;;;;11.80;6.23;;;;;;;;;;4992052;28;20451;-76
2022/03/02 09:34:30;;;;;;;9.53;6.73;;;;;;;;;;4993497;28;20422;-76
2022/03/02 09:36:59;;;;;;;12.37;6.73;;;;;;;;;;4992484;28;20482;-74
2022/03/02 09:39:25;;;;;;;15.03;6.20;;;;;;;;;;4987787;28;20450;-76
2022/03/02 09:42:00;;;;;;;10.27;6.73;;;;;;;;;;4992169;28;20511;-76
2022/03/02 09:44:31;;;;;;;10.20;6.00;;;;;;;;;;4994166;28;20416;-77
2022/03/02 09:47:00;;;;;;;9.60;6.70;;;;;;;;;;4992384;28;20409;-76
2022/03/02 09:49:30;;;;;;;10.80;8.00;;;;;;;;;;4991916;28;21361;-76
2022/03/02 09:52:05;;;;;;;17.50;7.97;;;;;;;;;;4992591;28;20794;-76
2022/03/02 09:54:36;;;;;;;13.43;7.70;;;;;;;;;;4989613;28;20451;-76
2022/03/02 09:57:03;;;;;;;10.93;7.00;;;;;;;;;;4990204;28;20775;-75
2022/03/02 09:59:33;;;;;;;10.20;7.63;;;;;;;;;;4990146;28;20419;-75
2022/03/02 10:02:00;;;;;;;14.87;8.70;;;;;;;;;;4991615;28;20440;-77
2022/03/02 10:04:29;;;;;;;12.70;8.20;;;;;;;;;;4961825;28;20482;-76
2022/03/02 10:09:46;;;;;;;11.20;7.60;;;;;;;;;;4988599;28;20479;-77
2022/03/02 10:12:14;;;;;;;11.97;8.27;;;;;;;;;;4989773;28;20483;-77
2022/03/02 10:14:41;;;;;;;10.73;7.70;;;;;;;;;;4984157;28;20977;-77
2022/03/02 10:17:11;;;;;;;13.70;8.83;;;;;;;;;;4989163;28;20549;-76
2022/03/02 10:19:40;;;;;;;12.70;8.27;;;;;;;;;;4989445;28;20451;-75
2022/03/02 10:22:19;;;;;;;10.23;6.90;;;;;;;;;;4992698;28;20522;-75
2022/03/02 10:24:46;;;;;;;14.00;8.30;;;;;;;;;;4991906;28;20507;-76
2022/03/02 10:27:18;;;;;;;10.77;8.17;;;;;;;;;;4991888;28;20771;-77
2022/03/02 10:29:50;;;;;;;14.63;7.10;;;;;;;;;;4990703;28;20408;-76
2022/03/02 10:32:17;;;;;;;12.27;7.47;;;;;;;;;;4991749;28;20440;-75
2022/03/02 10:34:46;;;;;;;16.77;7.13;;;;;;;;;;4982032;28;20436;-76
2022/03/02 10:37:13;;;;;;;11.80;7.53;;;;;;;;;;4985687;28;20448;-76
2022/03/02 10:40:12;;;;;;;15.07;7.10;;;;;;;;;;4991564;28;20416;-76
2022/03/02 10:42:46;;;;;;;10.83;7.90;;;;;;;;;;4993688;28;20439;-76
2022/03/02 10:45:17;;;;;;;11.13;6.97;;;;;;;;;;4989272;28;20424;-76
2022/03/02 10:47:43;;;;;;;11.90;7.13;;;;;;;;;;4988808;28;20423;-77
2022/03/02 10:50:10;;;;;;;13.73;7.47;;;;;;;;;;4991784;28;20416;-77
2022/03/02 10:52:38;;;;;;;15.53;8.60;;;;;;;;;;5001160;23;20532;-77
2022/03/02 10:55:07;;;;;;;10.87;6.73;;;;;;;;;;5026750;28;20426;-78
2022/03/02 10:57:34;;;;;;;10.97;7.73;;;;;;;;;;5012194;28;20458;-78
2022/03/02 11:00:04;;;;;;;12.43;7.00;;;;;;;;;;5013214;28;20446;-77
2022/03/02 11:02:31;;;;;;;11.17;7.00;;;;;;;;;;4998653;28;20411;-77
2022/03/02 11:04:58;;;;;;;9.73;6.47;;;;;;;;;;5013075;28;20412;-77
2022/03/02 11:07:25;;;;;;;9.67;5.87;;;;;;;;;;5006194;28;20411;-78
2022/03/02 11:09:52;;;;;;;8.13;6.40;;;;;;;;;;5009845;28;20493;-78
2022/03/02 11:12:20;;;;;;;19.50;6.53;;;;;;;;;;5008131;28;20416;-77
2022/03/02 11:14:56;;;;;;;7.33;5.93;;;;;;;;;;5000841;28;20431;-77
2022/03/02 11:17:23;;;;;;;17.40;6.07;;;;;;;;;;4999606;28;20455;-77
2022/03/02 11:19:49;;;;;;;13.70;6.57;;;;;;;;;;5010271;28;20415;-77
2022/03/02 11:22:18;;;;;;;12.60;7.23;;;;;;;;;;5025945;28;20423;-77
2022/03/02 11:24:44;;;;;;;10.47;6.60;;;;;;;;;;5014387;28;20434;-78
2022/03/02 11:27:30;;;;;;;12.23;7.00;;;;;;;;;;5017580;28;20419;-77
2022/03/02 11:30:04;;;;;;;7.90;6.77;;;;;;;;;;5015496;28;20419;-78
2022/03/02 11:32:32;;;;;;;9.27;6.77;;;;;;;;;;5011074;28;20443;-78
2022/03/02 11:35:00;;;;;;;16.60;6.93;;;;;;;;;;5009691;28;20863;-77
2022/03/02 11:37:27;;;;;;;10.47;6.33;;;;;;;;;;5003996;28;20491;-77
2022/03/02 11:39:53;;;;;;;13.57;6.03;;;;;;;;;;5002669;28;20412;-77
2022/03/02 11:42:27;;;;;;;9.13;6.47;;;;;;;;;;5011751;28;20423;-77
2022/03/02 11:44:55;;;;;;;6.27;5.33;;;;;;;;;;5014789;28;20407;-77
2022/03/02 11:47:21;;;;;;;6.53;5.30;;;;;;;;;;5004900;28;20438;-77
2022/03/02 11:49:47;;;;;;;7.87;6.30;;;;;;;;;;5011534;28;20482;-78
2022/03/02 11:52:17;;;;;;;13.70;6.17;;;;;;;;;;5013896;28;20937;-77
2022/03/02 11:54:51;;;;;;;10.97;6.97;;;;;;;;;;5008641;28;20447;-77
2022/03/02 11:57:18;;;;;;;9.03;5.50;;;;;;;;;;5000223;28;20455;-77
2022/03/02 11:59:45;;;;;;;10.13;5.90;;;;;;;;;;5008510;28;20422;-77
2022/03/02 12:02:14;;;;;;;7.97;6.23;;;;;;;;;;5008614;28;20420;-77
2022/03/02 12:04:40;;;;;;;9.90;6.73;;;;;;;;;;5009232;28;21006;-77
2022/03/02 12:07:08;;;;;;;8.77;6.07;;;;;;;;;;5014982;28;20778;-77
2022/03/02 12:09:35;;;;;;;9.50;5.67;;;;;;;;;;5014736;28;20419;-77
2022/03/02 12:12:07;;;;;;;8.60;5.77;;;;;;;;;;5006627;28;20446;-78
2022/03/02 12:14:46;;;;;;;8.50;6.20;;;;;;;;;;5002031;28;20526;-78
2022/03/02 12:17:18;;;;;;;13.60;6.57;;;;;;;;;;5018696;28;20447;-77
2022/03/02 12:19:49;;;;;;;22.00;6.03;;;;;;;;;;5027356;28;20410;-78
2022/03/02 12:22:17;;;;;;;8.33;5.27;;;;;;;;;;5017874;28;20501;-77
2022/03/02 12:24:44;;;;;;;7.60;6.17;;;;;;;;;;5011374;28;20447;-77
2022/03/02 12:27:11;;;;;;;9.17;6.17;;;;;;;;;;5011470;28;20429;-77
2022/03/02 12:29:38;;;;;;;7.20;5.20;;;;;;;;;;5014267;28;20630;-76
2022/03/02 12:32:05;;;;;;;13.07;7.10;;;;;;;;;;5011196;28;20915;-77
2022/03/02 12:34:39;;;;;;;13.70;6.33;;;;;;;;;;5013420;28;20430;-77
2022/03/02 12:37:06;;;;;;;9.20;6.40;;;;;;;;;;5010527;28;20504;-77
2022/03/02 12:39:32;;;;;;;10.50;5.80;;;;;;;;;;5010569;28;20437;-78
2022/03/02 12:41:58;;;;;;;6.93;5.57;;;;;;;;;;5013823;28;20785;-77
2022/03/02 12:44:25;;;;;;;8.60;6.03;;;;;;;;;;5012490;28;20440;-76
2022/03/02 12:46:53;;;;;;;12.07;6.10;;;;;;;;;;5013712;28;20513;-78
2022/03/02 12:49:25;;;;;;;8.13;6.03;;;;;;;;;;5011140;28;20473;-77
2022/03/02 12:51:52;;;;;;;13.00;6.70;;;;;;;;;;5006232;28;20415;-77
2022/03/02 12:54:18;;;;;;;6.57;5.87;;;;;;;;;;5010986;28;20548;-79
2022/03/02 12:56:44;;;;;;;8.53;6.23;;;;;;;;;;5015312;28;20513;-78
2022/03/02 12:59:11;;;;;;;9.60;5.83;;;;;;;;;;5012880;28;20494;-77
2022/03/02 13:01:37;;;;;;;8.87;5.70;;;;;;;;;;5011397;28;20825;-77
2022/03/02 13:04:06;;;;;;;10.53;7.77;;;;;;;;;;5008386;28;20431;-78
2022/03/02 13:06:37;;;;;;;9.37;6.33;;;;;;;;;;5009954;28;20447;-78
2022/03/02 13:09:09;;;;;;;8.67;5.93;;;;;;;;;;5008740;28;20415;-76
2022/03/02 13:11:37;;;;;;;13.33;6.90;;;;;;;;;;5024861;28;20498;-77
2022/03/02 13:14:03;;;;;;;9.07;6.50;;;;;;;;;;5006613;28;20780;-77
2022/03/02 13:16:30;;;;;;;10.30;6.73;;;;;;;;;;5012470;28;20447;-77
2022/03/02 13:18:59;;;;;;;15.83;8.43;;;;;;;;;;5009979;28;20502;-77
2022/03/02 13:21:26;;;;;;;10.73;7.30;;;;;;;;;;5013574;28;20506;-78
2022/03/02 13:24:05;;;;;;;9.27;7.50;;;;;;;;;;5009075;28;20773;-77
2022/03/02 13:26:32;;;;;;;15.47;7.33;;;;;;;;;;5011739;28;20419;-77
2022/03/02 13:29:06;;;;;;;7.40;6.40;;;;;;;;;;5007468;28;20480;-77
2022/03/02 13:31:50;;;;;;;11.80;6.43;;;;;;;;;;5014911;28;20430;-78
2022/03/02 13:34:17;;;;;;;11.90;5.83;;;;;;;;;;5013517;28;20435;-77
2022/03/02 13:36:45;;;;;;;10.23;6.63;;;;;;;;;;5012989;28;20458;-77
2022/03/02 13:39:11;;;;;;;7.17;5.77;;;;;;;;;;5025755;28;20426;-78
2022/03/02 13:41:46;;;;;;;10.90;6.80;;;;;;;;;;5006422;28;20465;-77
2022/03/02 13:44:33;;;;;;;8.70;6.73;;;;;;;;;;5000035;28;21303;-77
2022/03/02 13:47:08;;;;;;;8.37;5.93;;;;;;;;;;5013762;28;20423;-78
2022/03/02 13:49:50;;;;;;;11.13;6.43;;;;;;;;;;5011652;28;20419;-77
2022/03/02 13:52:42;;;;;;;12.43;6.50;;;;;;;;;;5007009;28;20513;-76
2022/03/02 13:55:10;;;;;;;9.07;7.03;;;;;;;;;;5003170;28;20432;-76
2022/03/02 13:57:36;;;;;;;9.30;6.63;;;;;;;;;;5009188;28;20536;-77
2022/03/02 14:00:21;;;;;;;11.10;7.07;;;;;;;;;;5011446;28;20419;-77
2022/03/02 14:02:56;;;;;;;14.10;9.43;;;;;;;;;;5005116;28;20424;-76
2022/03/02 14:05:23;;;;;;;12.50;7.30;;;;;;;;;;5011677;28;20414;-77
2022/03/02 14:07:50;;;;;;;12.03;8.27;;;;;;;;;;5008077;28;20442;-77
2022/03/02 14:10:17;;;;;;;10.03;7.60;;;;;;;;;;5010597;28;20415;-77
2022/03/02 14:12:56;;;;;;;10.40;8.87;;;;;;;;;;5011532;28;20447;-77
2022/03/02 14:15:23;;;;;;;10.43;8.03;;;;;;;;;;5012189;28;20423;-76
2022/03/02 14:17:49;;;;;;;11.70;8.17;;;;;;;;;;5008973;28;20968;-78
2022/03/02 14:20:23;;;;;;;12.20;9.07;;;;;;;;;;5010793;28;20467;-77
2022/03/02 14:22:57;;;;;;;9.47;7.50;;;;;;;;;;5010870;28;20494;-76
2022/03/02 14:25:23;;;;;;;9.40;7.40;;;;;;;;;;5011185;28;20398;-77
2022/03/02 14:27:55;;;;;;;12.43;8.50;;;;;;;;;;5011728;28;20470;-76
2022/03/02 14:30:22;;;;;;;12.13;9.80;;;;;;;;;;5012537;28;20965;-77
2022/03/02 14:32:52;;;;;;;19.53;9.20;;;;;;;;;;5013038;28;20947;-77
2022/03/02 14:35:23;;;;;;;15.77;9.27;;;;;;;;;;5013196;28;20755;-77
2022/03/02 14:37:51;;;;;;;11.80;8.23;;;;;;;;;;5014021;28;20439;-77
2022/03/02 14:40:17;;;;;;;11.80;8.87;;;;;;;;;;5013090;28;20838;-77
2022/03/02 14:42:44;;;;;;;10.03;7.83;;;;;;;;;;5007498;28;20999;-76